sensor_id;sensor_type;location;lat;lon;timestamp;pressure;altitude;pressure_sealevel;temperature;humidity
829;BME280;396;52.558;13.188;2023-04-24T00:02:09;99767.88;;;12.06;99.11
829;BME280;396;52.558;13.188;2023-04-24T00:04:38;99763.91;;;12.04;98.90
829;BME280;396;52.558;13.188;2023-04-24T00:07:07;99766.28;;;12.05;98.72
829;BME280;396;52.558;13.188;2023-04-24T00:09:34;99764.38;;;12.06;98.46
829;BME280;396;52.558;13.188;2023-04-24T00:12:00;99760.06;;;12.05;97.37
829;BME280;396;52.558;13.188;2023-04-24T00:14:29;99759.28;;;12.04;97.57
829;BME280;396;52.558;13.188;2023-04-24T00:16:55;99753.03;;;12.04;98.54
829;BME280;396;52.558;13.188;2023-04-24T00:19:22;99752.88;;;12.09;99.39
829;BME280;396;52.558;13.188;2023-04-24T00:21:48;99750.81;;;12.06;99.91
829;BME280;396;52.558;13.188;2023-04-24T00:24:17;99740.75;;;12.06;99.93
829;BME280;396;52.558;13.188;2023-04-24T00:26:44;99741.53;;;12.07;100.00
829;BME280;396;52.558;13.188;2023-04-24T00:29:10;99741.53;;;12.07;100.00
829;BME280;396;52.558;13.188;2023-04-24T00:31:37;99742.00;;;12.09;100.00
829;BME280;396;52.558;13.188;2023-04-24T00:34:04;99730.00;;;12.10;100.00
829;BME280;396;52.558;13.188;2023-04-24T00:36:31;99732.53;;;12.15;100.00
829;BME280;396;52.558;13.188;2023-04-24T00:38:58;99718.94;;;12.15;100.00
829;BME280;396;52.558;13.188;2023-04-24T00:41:26;99715.09;;;12.16;100.00
829;BME280;396;52.558;13.188;2023-04-24T00:43:52;99712.53;;;12.20;100.00
829;BME280;396;52.558;13.188;2023-04-24T00:46:20;99704.72;;;12.18;100.00
829;BME280;396;52.558;13.188;2023-04-24T00:48:47;99700.88;;;12.19;100.00
829;BME280;396;52.558;13.188;2023-04-24T00:51:13;99702.94;;;12.22;100.00
829;BME280;396;52.558;13.188;2023-04-24T00:53:41;99691.38;;;12.25;100.00
829;BME280;396;52.558;13.188;2023-04-24T00:56:07;99694.56;;;12.27;100.00
829;BME280;396;52.558;13.188;2023-04-24T00:58:35;99685.06;;;12.33;100.00
829;BME280;396;52.558;13.188;2023-04-24T01:01:02;99696.06;;;12.37;100.00
829;BME280;396;52.558;13.188;2023-04-24T01:03:33;99700.84;;;12.40;100.00
829;BME280;396;52.558;13.188;2023-04-24T01:06:02;99699.94;;;12.48;100.00
829;BME280;396;52.558;13.188;2023-04-24T01:08:29;99704.50;;;12.56;100.00
829;BME280;396;52.558;13.188;2023-04-24T01:10:57;99722.97;;;12.63;100.00
829;BME280;396;52.558;13.188;2023-04-24T01:13:24;99711.31;;;12.62;100.00
829;BME280;396;52.558;13.188;2023-04-24T01:15:52;99716.53;;;12.68;100.00
829;BME280;396;52.558;13.188;2023-04-24T01:18:18;99708.03;;;12.69;100.00
829;BME280;396;52.558;13.188;2023-04-24T01:20:46;99708.59;;;12.62;100.00
829;BME280;396;52.558;13.188;2023-04-24T01:23:15;99704.63;;;12.60;100.00
829;BME280;396;52.558;13.188;2023-04-24T01:25:42;99704.84;;;12.55;100.00
829;BME280;396;52.558;13.188;2023-04-24T01:28:09;99699.16;;;12.48;100.00
829;BME280;396;52.558;13.188;2023-04-24T01:30:35;99704.00;;;12.42;100.00
829;BME280;396;52.558;13.188;2023-04-24T01:33:02;99690.97;;;12.35;100.00
829;BME280;396;52.558;13.188;2023-04-24T01:35:29;99685.41;;;12.32;100.00
829;BME280;396;52.558;13.188;2023-04-24T01:37:56;99691.91;;;12.40;100.00
829;BME280;396;52.558;13.188;2023-04-24T01:40:24;99693.94;;;12.43;100.00
829;BME280;396;52.558;13.188;2023-04-24T01:42:50;99688.84;;;12.41;100.00
829;BME280;396;52.558;13.188;2023-04-24T01:45:17;99695.31;;;12.49;100.00
829;BME280;396;52.558;13.188;2023-04-24T01:47:44;99689.19;;;12.52;100.00
829;BME280;396;52.558;13.188;2023-04-24T01:50:11;99683.88;;;12.55;100.00
829;BME280;396;52.558;13.188;2023-04-24T01:52:38;99681.97;;;12.56;100.00
829;BME280;396;52.558;13.188;2023-04-24T01:55:05;99675.63;;;12.52;100.00
829;BME280;396;52.558;13.188;2023-04-24T01:57:34;99673.25;;;12.50;100.00
829;BME280;396;52.558;13.188;2023-04-24T02:00:02;99667.03;;;12.50;100.00
829;BME280;396;52.558;13.188;2023-04-24T02:02:30;99672.31;;;12.46;100.00
829;BME280;396;52.558;13.188;2023-04-24T02:04:56;99680.13;;;12.48;100.00
829;BME280;396;52.558;13.188;2023-04-24T02:07:23;99675.38;;;12.45;100.00
829;BME280;396;52.558;13.188;2023-04-24T02:09:50;99672.66;;;12.45;100.00
829;BME280;396;52.558;13.188;2023-04-24T02:12:16;99673.78;;;12.44;100.00
829;BME280;396;52.558;13.188;2023-04-24T02:14:45;99664.63;;;12.48;100.00
829;BME280;396;52.558;13.188;2023-04-24T02:17:11;99668.47;;;12.47;100.00
829;BME280;396;52.558;13.188;2023-04-24T02:19:39;99669.38;;;12.51;100.00
829;BME280;396;52.558;13.188;2023-04-24T02:22:05;99660.94;;;12.53;100.00
829;BME280;396;52.558;13.188;2023-04-24T02:24:32;99661.13;;;12.48;100.00
829;BME280;396;52.558;13.188;2023-04-24T02:26:59;99664.31;;;12.50;100.00
829;BME280;396;52.558;13.188;2023-04-24T02:29:27;99655.69;;;12.48;100.00
829;BME280;396;52.558;13.188;2023-04-24T02:31:55;99658.41;;;12.48;100.00
829;BME280;396;52.558;13.188;2023-04-24T02:34:21;99654.44;;;12.45;100.00
829;BME280;396;52.558;13.188;2023-04-24T02:36:48;99649.03;;;12.45;100.00
829;BME280;396;52.558;13.188;2023-04-24T02:39:15;99648.22;;;12.45;100.00
829;BME280;396;52.558;13.188;2023-04-24T02:41:42;99638.81;;;12.42;100.00
829;BME280;396;52.558;13.188;2023-04-24T02:44:09;99643.91;;;12.44;100.00
829;BME280;396;52.558;13.188;2023-04-24T02:46:35;99645.16;;;12.46;100.00
829;BME280;396;52.558;13.188;2023-04-24T02:49:03;99647.75;;;12.43;100.00
829;BME280;396;52.558;13.188;2023-04-24T02:51:30;99651.94;;;12.40;100.00
829;BME280;396;52.558;13.188;2023-04-24T02:53:57;99647.63;;;12.39;100.00
829;BME280;396;52.558;13.188;2023-04-24T02:56:23;99644.34;;;12.33;100.00
829;BME280;396;52.558;13.188;2023-04-24T02:58:50;99644.69;;;12.32;100.00
829;BME280;396;52.558;13.188;2023-04-24T03:01:17;99647.28;;;12.28;100.00
829;BME280;396;52.558;13.188;2023-04-24T03:03:44;99648.84;;;12.29;100.00
829;BME280;396;52.558;13.188;2023-04-24T03:06:12;99658.25;;;12.32;100.00
829;BME280;396;52.558;13.188;2023-04-24T03:08:38;99655.69;;;12.35;100.00
829;BME280;396;52.558;13.188;2023-04-24T03:11:05;99656.13;;;12.37;100.00
829;BME280;396;52.558;13.188;2023-04-24T03:13:31;99650.47;;;12.43;100.00
829;BME280;396;52.558;13.188;2023-04-24T03:15:58;99658.97;;;12.41;100.00
829;BME280;396;52.558;13.188;2023-04-24T03:18:25;99665.19;;;12.42;100.00
829;BME280;396;52.558;13.188;2023-04-24T03:20:51;99669.75;;;12.50;100.00
829;BME280;396;52.558;13.188;2023-04-24T03:23:19;99663.28;;;12.54;100.00
829;BME280;396;52.558;13.188;2023-04-24T03:25:46;99672.69;;;12.57;100.00
829;BME280;396;52.558;13.188;2023-04-24T03:28:13;99670.44;;;12.59;100.00
829;BME280;396;52.558;13.188;2023-04-24T03:30:40;99672.00;;;12.60;100.00
829;BME280;396;52.558;13.188;2023-04-24T03:33:07;99665.13;;;12.62;100.00
829;BME280;396;52.558;13.188;2023-04-24T03:35:33;99663.19;;;12.63;100.00
829;BME280;396;52.558;13.188;2023-04-24T03:38:00;99666.84;;;12.67;100.00
829;BME280;396;52.558;13.188;2023-04-24T03:40:28;99666.13;;;12.70;100.00
829;BME280;396;52.558;13.188;2023-04-24T03:42:54;99664.56;;;12.69;100.00
829;BME280;396;52.558;13.188;2023-04-24T03:45:21;99671.56;;;12.70;100.00
829;BME280;396;52.558;13.188;2023-04-24T03:47:48;99664.69;;;12.73;100.00
829;BME280;396;52.558;13.188;2023-04-24T03:50:14;99667.06;;;12.74;100.00
829;BME280;396;52.558;13.188;2023-04-24T03:52:41;99668.41;;;12.68;100.00
829;BME280;396;52.558;13.188;2023-04-24T03:55:08;99670.13;;;12.73;100.00
829;BME280;396;52.558;13.188;2023-04-24T03:57:39;99666.72;;;12.76;100.00
829;BME280;396;52.558;13.188;2023-04-24T04:00:07;99668.19;;;12.73;100.00
829;BME280;396;52.558;13.188;2023-04-24T04:02:34;99667.41;;;12.73;100.00
829;BME280;396;52.558;13.188;2023-04-24T04:05:00;99666.59;;;12.72;100.00
829;BME280;396;52.558;13.188;2023-04-24T04:07:27;99668.66;;;12.75;100.00
829;BME280;396;52.558;13.188;2023-04-24T04:09:55;99657.78;;;12.75;100.00
829;BME280;396;52.558;13.188;2023-04-24T04:12:21;99650.44;;;12.76;100.00
829;BME280;396;52.558;13.188;2023-04-24T04:14:49;99658.91;;;12.74;100.00
829;BME280;396;52.558;13.188;2023-04-24T04:17:16;99653.38;;;12.71;100.00
829;BME280;396;52.558;13.188;2023-04-24T04:19:43;99664.56;;;12.69;100.00
829;BME280;396;52.558;13.188;2023-04-24T04:22:10;99655.28;;;12.58;100.00
829;BME280;396;52.558;13.188;2023-04-24T04:24:36;99658.78;;;12.58;100.00
829;BME280;396;52.558;13.188;2023-04-24T04:27:03;99660.00;;;12.49;100.00
829;BME280;396;52.558;13.188;2023-04-24T04:29:30;99659.53;;;12.47;100.00
829;BME280;396;52.558;13.188;2023-04-24T04:31:59;99657.47;;;12.44;100.00
829;BME280;396;52.558;13.188;2023-04-24T04:34:26;99663.84;;;12.48;100.00
829;BME280;396;52.558;13.188;2023-04-24T04:36:53;99660.00;;;12.49;100.00
829;BME280;396;52.558;13.188;2023-04-24T04:39:20;99662.50;;;12.54;100.00
829;BME280;396;52.558;13.188;2023-04-24T04:41:46;99662.94;;;12.56;100.00
829;BME280;396;52.558;13.188;2023-04-24T04:44:14;99670.44;;;12.59;100.00
829;BME280;396;52.558;13.188;2023-04-24T04:46:41;99674.38;;;12.61;100.00
829;BME280;396;52.558;13.188;2023-04-24T04:49:09;99669.88;;;12.66;100.00
829;BME280;396;52.558;13.188;2023-04-24T04:51:36;99673.41;;;12.66;100.00
829;BME280;396;52.558;13.188;2023-04-24T04:54:02;99679.16;;;12.65;100.00
829;BME280;396;52.558;13.188;2023-04-24T04:56:29;99677.69;;;12.67;100.00
829;BME280;396;52.558;13.188;2023-04-24T04:58:56;99680.53;;;12.71;100.00
829;BME280;396;52.558;13.188;2023-04-24T05:01:22;99682.13;;;12.72;100.00
829;BME280;396;52.558;13.188;2023-04-24T05:03:49;99691.19;;;12.76;100.00
829;BME280;396;52.558;13.188;2023-04-24T05:06:17;99688.13;;;12.77;100.00
829;BME280;396;52.558;13.188;2023-04-24T05:08:44;99690.19;;;12.80;100.00
829;BME280;396;52.558;13.188;2023-04-24T05:11:10;99691.41;;;12.83;100.00
829;BME280;396;52.558;13.188;2023-04-24T05:13:37;99688.03;;;12.86;100.00
829;BME280;396;52.558;13.188;2023-04-24T05:16:04;99685.75;;;12.88;100.00
829;BME280;396;52.558;13.188;2023-04-24T05:18:30;99683.16;;;12.92;100.00
829;BME280;396;52.558;13.188;2023-04-24T05:20:57;99690.28;;;12.96;100.00
829;BME280;396;52.558;13.188;2023-04-24T05:23:25;99694.25;;;12.99;100.00
829;BME280;396;52.558;13.188;2023-04-24T05:25:51;99698.56;;;13.00;100.00
829;BME280;396;52.558;13.188;2023-04-24T05:28:18;99698.91;;;12.98;100.00
829;BME280;396;52.558;13.188;2023-04-24T05:30:45;99703.66;;;13.01;100.00
829;BME280;396;52.558;13.188;2023-04-24T05:33:11;99707.63;;;13.04;100.00
829;BME280;396;52.558;13.188;2023-04-24T05:35:40;99710.91;;;13.09;99.73
829;BME280;396;52.558;13.188;2023-04-24T05:38:11;99714.88;;;13.12;99.59
829;BME280;396;52.558;13.188;2023-04-24T05:40:39;99704.44;;;13.14;99.16
829;BME280;396;52.558;13.188;2023-04-24T05:43:05;99712.16;;;13.12;98.84
829;BME280;396;52.558;13.188;2023-04-24T05:45:33;99708.44;;;13.17;98.74
829;BME280;396;52.558;13.188;2023-04-24T05:48:01;99715.25;;;13.23;97.99
829;BME280;396;52.558;13.188;2023-04-24T05:50:27;99712.06;;;13.21;98.49
829;BME280;396;52.558;13.188;2023-04-24T05:52:54;99716.50;;;13.25;97.88
829;BME280;396;52.558;13.188;2023-04-24T05:55:23;99724.44;;;13.30;98.31
829;BME280;396;52.558;13.188;2023-04-24T05:57:51;99718.56;;;13.28;97.92
829;BME280;396;52.558;13.188;2023-04-24T06:00:18;99715.03;;;13.40;98.27
829;BME280;396;52.558;13.188;2023-04-24T06:02:45;99717.75;;;13.52;97.04
829;BME280;396;52.558;13.188;2023-04-24T06:05:12;99719.66;;;13.64;96.09
829;BME280;396;52.558;13.188;2023-04-24T06:07:39;99725.53;;;13.78;95.25
829;BME280;396;52.558;13.188;2023-04-24T06:10:06;99726.19;;;13.87;94.51
829;BME280;396;52.558;13.188;2023-04-24T06:12:32;99732.78;;;13.86;94.44
829;BME280;396;52.558;13.188;2023-04-24T06:15:00;99734.78;;;13.89;92.85
829;BME280;396;52.558;13.188;2023-04-24T06:17:27;99737.72;;;13.97;92.01
829;BME280;396;52.558;13.188;2023-04-24T06:19:54;99724.75;;;14.06;92.51
829;BME280;396;52.558;13.188;2023-04-24T06:22:20;99731.06;;;14.22;91.89
829;BME280;396;52.558;13.188;2023-04-24T06:24:47;99728.88;;;14.28;90.47
829;BME280;396;52.558;13.188;2023-04-24T06:27:14;99736.22;;;14.39;87.94
829;BME280;396;52.558;13.188;2023-04-24T06:29:41;99736.53;;;14.50;85.71
829;BME280;396;52.558;13.188;2023-04-24T06:32:08;99732.41;;;14.56;86.91
829;BME280;396;52.558;13.188;2023-04-24T06:34:41;99741.31;;;14.53;86.92
829;BME280;396;52.558;13.188;2023-04-24T06:37:08;99742.97;;;14.58;84.27
829;BME280;396;52.558;13.188;2023-04-24T06:39:35;99737.38;;;14.67;84.63
829;BME280;396;52.558;13.188;2023-04-24T06:42:01;99734.97;;;14.65;85.00
829;BME280;396;52.558;13.188;2023-04-24T06:44:28;99737.31;;;14.79;84.89
829;BME280;396;52.558;13.188;2023-04-24T06:46:54;99738.63;;;14.85;83.02
829;BME280;396;52.558;13.188;2023-04-24T06:49:22;99738.44;;;14.78;81.66
829;BME280;396;52.558;13.188;2023-04-24T06:51:49;99732.91;;;14.74;81.51
829;BME280;396;52.558;13.188;2023-04-24T06:54:15;99731.66;;;14.72;82.99
829;BME280;396;52.558;13.188;2023-04-24T06:56:42;99729.03;;;14.75;80.22
829;BME280;396;52.558;13.188;2023-04-24T06:59:10;99732.91;;;14.74;80.47
829;BME280;396;52.558;13.188;2023-04-24T07:01:37;99737.63;;;14.77;80.20
829;BME280;396;52.558;13.188;2023-04-24T07:04:04;99736.59;;;14.82;77.97
829;BME280;396;52.558;13.188;2023-04-24T07:06:32;99729.34;;;14.74;79.22
829;BME280;396;52.558;13.188;2023-04-24T07:08:58;99721.63;;;14.76;80.41
829;BME280;396;52.558;13.188;2023-04-24T07:11:25;99729.28;;;14.86;80.26
829;BME280;396;52.558;13.188;2023-04-24T07:13:54;99729.66;;;15.00;79.08
829;BME280;396;52.558;13.188;2023-04-24T07:16:21;99730.72;;;15.11;78.06
829;BME280;396;52.558;13.188;2023-04-24T07:18:48;99726.16;;;15.16;76.84
829;BME280;396;52.558;13.188;2023-04-24T07:21:14;99720.00;;;15.19;76.84
829;BME280;396;52.558;13.188;2023-04-24T07:23:42;99727.19;;;15.27;74.40
829;BME280;396;52.558;13.188;2023-04-24T07:26:09;99732.44;;;15.35;75.15
829;BME280;396;52.558;13.188;2023-04-24T07:28:36;99736.41;;;15.38;72.72
829;BME280;396;52.558;13.188;2023-04-24T07:31:02;99741.97;;;15.42;71.84
829;BME280;396;52.558;13.188;2023-04-24T07:33:29;99735.34;;;15.43;72.13
829;BME280;396;52.558;13.188;2023-04-24T07:35:55;99741.59;;;15.43;74.17
829;BME280;396;52.558;13.188;2023-04-24T07:38:22;99738.25;;;15.50;73.25
829;BME280;396;52.558;13.188;2023-04-24T07:40:52;99734.66;;;15.46;73.82
829;BME280;396;52.558;13.188;2023-04-24T07:43:19;99726.34;;;15.58;72.56
829;BME280;396;52.558;13.188;2023-04-24T07:45:46;99719.03;;;15.62;73.13
829;BME280;396;52.558;13.188;2023-04-24T07:48:13;99739.03;;;15.66;72.48
829;BME280;396;52.558;13.188;2023-04-24T07:50:41;99729.25;;;15.81;70.88
829;BME280;396;52.558;13.188;2023-04-24T07:53:08;99730.59;;;15.91;71.08
829;BME280;396;52.558;13.188;2023-04-24T07:55:34;99730.41;;;15.99;69.96
829;BME280;396;52.558;13.188;2023-04-24T07:58:02;99739.59;;;16.10;70.64
829;BME280;396;52.558;13.188;2023-04-24T08:00:29;99723.94;;;16.27;68.03
829;BME280;396;52.558;13.188;2023-04-24T08:02:56;99731.91;;;16.35;65.23
829;BME280;396;52.558;13.188;2023-04-24T08:05:22;99739.19;;;16.47;64.71
829;BME280;396;52.558;13.188;2023-04-24T08:07:50;99728.84;;;16.60;65.60
829;BME280;396;52.558;13.188;2023-04-24T08:10:17;99733.66;;;16.67;66.31
829;BME280;396;52.558;13.188;2023-04-24T08:12:44;99736.41;;;16.67;68.43
829;BME280;396;52.558;13.188;2023-04-24T08:15:12;99734.69;;;16.78;68.69
829;BME280;396;52.558;13.188;2023-04-24T08:17:39;99740.75;;;16.90;67.11
829;BME280;396;52.558;13.188;2023-04-24T08:20:08;99748.72;;;16.99;63.53
829;BME280;396;52.558;13.188;2023-04-24T08:22:38;99733.59;;;16.82;62.16
829;BME280;396;52.558;13.188;2023-04-24T08:25:06;99731.59;;;16.79;62.52
829;BME280;396;52.558;13.188;2023-04-24T08:27:32;99730.66;;;16.95;61.88
829;BME280;396;52.558;13.188;2023-04-24T08:29:59;99731.13;;;16.97;63.33
829;BME280;396;52.558;13.188;2023-04-24T08:32:27;99731.91;;;16.97;62.43
829;BME280;396;52.558;13.188;2023-04-24T08:34:54;99729.94;;;16.98;63.80
829;BME280;396;52.558;13.188;2023-04-24T08:37:21;99730.19;;;17.12;64.42
829;BME280;396;52.558;13.188;2023-04-24T08:39:48;99741.31;;;17.23;63.94
829;BME280;396;52.558;13.188;2023-04-24T08:42:17;99735.94;;;17.30;62.71
829;BME280;396;52.558;13.188;2023-04-24T08:44:44;99751.66;;;17.33;61.48
829;BME280;396;52.558;13.188;2023-04-24T08:47:11;99749.22;;;17.28;62.00
829;BME280;396;52.558;13.188;2023-04-24T08:49:39;99739.91;;;17.32;61.80
829;BME280;396;52.558;13.188;2023-04-24T08:52:06;99742.31;;;17.37;61.69
829;BME280;396;52.558;13.188;2023-04-24T08:54:33;99747.94;;;17.45;63.59
829;BME280;396;52.558;13.188;2023-04-24T08:57:01;99736.97;;;17.45;62.73
829;BME280;396;52.558;13.188;2023-04-24T08:59:29;99740.97;;;17.51;62.52
829;BME280;396;52.558;13.188;2023-04-24T09:01:56;99739.47;;;17.57;63.23
829;BME280;396;52.558;13.188;2023-04-24T09:04:24;99753.34;;;17.68;60.92
829;BME280;396;52.558;13.188;2023-04-24T09:06:55;99745.75;;;17.57;61.41
829;BME280;396;52.558;13.188;2023-04-24T09:09:22;99743.31;;;17.52;61.84
829;BME280;396;52.558;13.188;2023-04-24T09:11:50;99750.34;;;17.50;61.16
829;BME280;396;52.558;13.188;2023-04-24T09:14:19;99743.59;;;17.44;62.87
829;BME280;396;52.558;13.188;2023-04-24T09:16:46;99737.84;;;17.52;61.23
829;BME280;396;52.558;13.188;2023-04-24T09:19:12;99745.66;;;17.50;61.67
829;BME280;396;52.558;13.188;2023-04-24T09:21:39;99744.94;;;17.53;62.54
829;BME280;396;52.558;13.188;2023-04-24T09:24:14;99745.81;;;17.61;64.32
829;BME280;396;52.558;13.188;2023-04-24T09:26:43;99743.28;;;17.49;62.47
829;BME280;396;52.558;13.188;2023-04-24T09:29:14;99744.91;;;17.27;63.99
829;BME280;396;52.558;13.188;2023-04-24T09:31:41;99745.03;;;17.11;64.70
829;BME280;396;52.558;13.188;2023-04-24T09:34:07;99742.41;;;16.95;65.47
829;BME280;396;52.558;13.188;2023-04-24T09:36:36;99741.91;;;16.89;66.59
829;BME280;396;52.558;13.188;2023-04-24T09:39:04;99750.44;;;16.84;68.15
829;BME280;396;52.558;13.188;2023-04-24T09:41:34;99750.50;;;16.88;68.73
829;BME280;396;52.558;13.188;2023-04-24T09:44:11;99752.56;;;16.95;67.27
829;BME280;396;52.558;13.188;2023-04-24T09:46:38;99750.44;;;17.07;67.34
829;BME280;396;52.558;13.188;2023-04-24T09:49:08;99753.53;;;17.29;66.57
829;BME280;396;52.558;13.188;2023-04-24T09:51:36;99755.88;;;17.30;63.80
829;BME280;396;52.558;13.188;2023-04-24T09:54:03;99755.03;;;17.26;64.88
829;BME280;396;52.558;13.188;2023-04-24T09:56:33;99748.63;;;17.15;65.21
829;BME280;396;52.558;13.188;2023-04-24T09:59:07;99743.38;;;17.06;64.33
829;BME280;396;52.558;13.188;2023-04-24T10:01:34;99746.06;;;17.03;63.88
829;BME280;396;52.558;13.188;2023-04-24T10:04:01;99744.91;;;17.04;63.80
829;BME280;396;52.558;13.188;2023-04-24T10:06:34;99738.69;;;17.07;65.25
829;BME280;396;52.558;13.188;2023-04-24T10:09:02;99746.72;;;17.19;65.38
829;BME280;396;52.558;13.188;2023-04-24T10:11:29;99738.81;;;17.37;64.99
829;BME280;396;52.558;13.188;2023-04-24T10:13:56;99745.81;;;17.61;62.21
829;BME280;396;52.558;13.188;2023-04-24T10:16:25;99741.03;;;17.54;62.98
829;BME280;396;52.558;13.188;2023-04-24T10:18:54;99741.16;;;17.65;63.46
829;BME280;396;52.558;13.188;2023-04-24T10:21:21;99741.88;;;17.58;62.71
829;BME280;396;52.558;13.188;2023-04-24T10:23:48;99734.06;;;17.34;64.21
829;BME280;396;52.558;13.188;2023-04-24T10:26:16;99744.91;;;17.27;63.44
829;BME280;396;52.558;13.188;2023-04-24T10:28:45;99739.78;;;17.25;64.24
829;BME280;396;52.558;13.188;2023-04-24T10:31:12;99742.84;;;17.20;64.10
829;BME280;396;52.558;13.188;2023-04-24T10:33:41;99737.19;;;17.09;64.51
829;BME280;396;52.558;13.188;2023-04-24T10:36:09;99730.63;;;17.14;64.88
829;BME280;396;52.558;13.188;2023-04-24T10:38:38;99725.56;;;17.16;65.25
829;BME280;396;52.558;13.188;2023-04-24T10:41:07;99714.81;;;17.27;67.09
829;BME280;396;52.558;13.188;2023-04-24T10:43:35;99713.59;;;17.51;65.24
829;BME280;396;52.558;13.188;2023-04-24T10:46:03;99718.91;;;17.93;64.25
829;BME280;396;52.558;13.188;2023-04-24T10:48:30;99726.78;;;18.28;61.95
829;BME280;396;52.558;13.188;2023-04-24T10:50:59;99725.88;;;18.54;61.23
829;BME280;396;52.558;13.188;2023-04-24T10:53:28;99742.78;;;18.60;58.57
829;BME280;396;52.558;13.188;2023-04-24T10:55:58;99736.88;;;18.58;57.72
829;BME280;396;52.558;13.188;2023-04-24T10:58:35;99748.72;;;18.32;55.72
829;BME280;396;52.558;13.188;2023-04-24T11:01:02;99743.97;;;18.25;58.93
829;BME280;396;52.558;13.188;2023-04-24T11:03:31;99733.97;;;18.10;57.97
829;BME280;396;52.558;13.188;2023-04-24T11:06:01;99746.31;;;17.93;61.04
829;BME280;396;52.558;13.188;2023-04-24T11:08:30;99747.31;;;17.81;62.21
829;BME280;396;52.558;13.188;2023-04-24T11:10:59;99732.94;;;17.65;65.66
829;BME280;396;52.558;13.188;2023-04-24T11:13:27;99739.72;;;17.45;67.21
829;BME280;396;52.558;13.188;2023-04-24T11:16:13;99740.31;;;17.34;65.14
829;BME280;396;52.558;13.188;2023-04-24T11:18:42;99743.19;;;17.42;63.60
829;BME280;396;52.558;13.188;2023-04-24T11:21:12;99741.59;;;17.40;59.91
829;BME280;396;52.558;13.188;2023-04-24T11:23:39;99734.75;;;17.54;62.98
829;BME280;396;52.558;13.188;2023-04-24T11:26:12;99728.78;;;18.69;59.88
829;BME280;396;52.558;13.188;2023-04-24T11:28:49;99722.03;;;19.55;54.90
829;BME280;396;52.558;13.188;2023-04-24T11:31:34;99724.41;;;20.26;55.88
829;BME280;396;52.558;13.188;2023-04-24T11:34:06;99721.81;;;20.86;52.03
829;BME280;396;52.558;13.188;2023-04-24T11:36:34;99721.81;;;21.58;51.53
829;BME280;396;52.558;13.188;2023-04-24T11:39:01;99732.28;;;22.20;49.85
829;BME280;396;52.558;13.188;2023-04-24T11:41:28;99730.56;;;22.48;47.35
829;BME280;396;52.558;13.188;2023-04-24T11:43:56;99727.53;;;22.24;47.32
829;BME280;396;52.558;13.188;2023-04-24T11:46:22;99721.41;;;21.63;50.17
829;BME280;396;52.558;13.188;2023-04-24T11:48:49;99711.56;;;20.80;51.09
829;BME280;396;52.558;13.188;2023-04-24T11:51:16;99709.84;;;20.25;53.72
829;BME280;396;52.558;13.188;2023-04-24T11:53:44;99707.34;;;19.91;53.10
829;BME280;396;52.558;13.188;2023-04-24T11:56:10;99712.63;;;19.56;55.77
829;BME280;396;52.558;13.188;2023-04-24T11:58:38;99708.16;;;19.33;55.30
829;BME280;396;52.558;13.188;2023-04-24T12:01:05;99715.41;;;19.04;56.41
829;BME280;396;52.558;13.188;2023-04-24T12:03:31;99704.28;;;18.90;57.57
829;BME280;396;52.558;13.188;2023-04-24T12:06:08;99700.47;;;18.61;57.94
829;BME280;396;52.558;13.188;2023-04-24T12:08:34;99703.09;;;18.50;57.39
829;BME280;396;52.558;13.188;2023-04-24T12:11:04;99715.09;;;18.35;59.13
829;BME280;396;52.558;13.188;2023-04-24T12:13:32;99701.06;;;18.77;57.37
829;BME280;396;52.558;13.188;2023-04-24T12:16:00;99709.34;;;19.95;54.29
829;BME280;396;52.558;13.188;2023-04-24T12:18:27;99699.53;;;20.01;54.10
829;BME280;396;52.558;13.188;2023-04-24T12:20:54;99698.66;;;19.79;51.36
829;BME280;396;52.558;13.188;2023-04-24T12:23:33;99704.38;;;19.52;50.71
829;BME280;396;52.558;13.188;2023-04-24T12:26:04;99731.38;;;19.43;51.43
829;BME280;396;52.558;13.188;2023-04-24T12:28:34;99732.75;;;19.15;51.99
829;BME280;396;52.558;13.188;2023-04-24T12:31:01;99730.91;;;18.82;52.65
829;BME280;396;52.558;13.188;2023-04-24T12:33:32;99726.53;;;18.44;50.80
829;BME280;396;52.558;13.188;2023-04-24T12:35:59;99729.69;;;18.43;49.80
829;BME280;396;52.558;13.188;2023-04-24T12:38:27;99720.38;;;18.17;50.75
829;BME280;396;52.558;13.188;2023-04-24T12:41:02;99723.16;;;18.21;51.28
829;BME280;396;52.558;13.188;2023-04-24T12:43:31;99725.56;;;18.26;52.22
829;BME280;396;52.558;13.188;2023-04-24T12:45:57;99724.81;;;18.29;52.34
829;BME280;396;52.558;13.188;2023-04-24T12:48:24;99723.47;;;19.34;51.23
829;BME280;396;52.558;13.188;2023-04-24T12:50:51;99717.06;;;20.65;48.19
829;BME280;396;52.558;13.188;2023-04-24T12:53:17;99726.53;;;20.97;45.91
829;BME280;396;52.558;13.188;2023-04-24T12:55:44;99721.69;;;20.40;48.91
829;BME280;396;52.558;13.188;2023-04-24T12:58:12;99727.28;;;19.74;50.22
829;BME280;396;52.558;13.188;2023-04-24T13:00:40;99718.66;;;19.17;50.81
829;BME280;396;52.558;13.188;2023-04-24T13:03:08;99735.22;;;18.50;52.93
829;BME280;396;52.558;13.188;2023-04-24T13:05:35;99726.44;;;18.33;52.79
829;BME280;396;52.558;13.188;2023-04-24T13:08:01;99724.47;;;18.34;54.39
829;BME280;396;52.558;13.188;2023-04-24T13:10:28;99721.94;;;18.52;54.89
829;BME280;396;52.558;13.188;2023-04-24T13:12:55;99713.81;;;18.62;54.99
829;BME280;396;52.558;13.188;2023-04-24T13:15:21;99725.75;;;18.44;55.49
829;BME280;396;52.558;13.188;2023-04-24T13:17:50;99730.53;;;18.50;55.28
829;BME280;396;52.558;13.188;2023-04-24T13:20:17;99713.84;;;19.58;52.48
829;BME280;396;52.558;13.188;2023-04-24T13:22:44;99710.53;;;19.94;50.88
829;BME280;396;52.558;13.188;2023-04-24T13:25:10;99712.69;;;20.47;49.48
829;BME280;396;52.558;13.188;2023-04-24T13:27:38;99710.78;;;20.94;47.86
829;BME280;396;52.558;13.188;2023-04-24T13:30:06;99707.66;;;21.52;45.89
829;BME280;396;52.558;13.188;2023-04-24T13:32:33;99709.19;;;21.78;45.22